tititudorancea.com
Station Historical Data
Daily Summary for October 6, 2018 Units:  Metric    English   Both
« Previous Day
Next Day »
Daily Weekly Monthly Yearly Custom
  High: Low: Average:
Temperature: -17.8 °C 2.6 °C 13.8 °C
Dew Point: -17.8 °C 1.4 °C 6.5 °C
Humidity: Humidity % 36 % 65 %
Wind Speed: 0 km/h 0 km/h 6 km/h
Wind Gust: 0 km/h - -
Wind:- - SE
Pressure: 0 hPa 1018.8 hPa -
Precipitation: 0 mm    
Historical Graphs
 
 
Ararat weather Find more about Weather in Ararat, AU


 



 


Tabular Data for October 6, 2018
Time Temperature Dew Point Pressure Wind Wind Speed Wind Gust Humidity Rainfall Rate (Hourly)
-17.8 °C -17.8 °C 0 hPa Calm     Humidity % 0 mm
00:04 7.8 °C 6.1 °C 1022.2 hPa South 5.6 km/h 2.7 km/h 89 % 0 mm
00:09 7.8 °C 5.9 °C 1022.2 hPa South 6.4 km/h 4 km/h 88 % 0 mm
00:14 7.7 °C 6 °C 1022.2 hPa North 3.7 km/h 1.8 km/h 89 % 0 mm
00:19 7.6 °C 5.9 °C 1022.2 hPa South 6.4 km/h 6.1 km/h 89 % 0 mm
00:24 7.5 °C 5.8 °C 1022.2 hPa North 5.6 km/h 4 km/h 89 % 0 mm
00:29 7.4 °C 5.7 °C 1022.2 hPa South 3.7 km/h 2.7 km/h 89 % 0 mm
00:34 7.3 °C 5.7 °C 1022.2 hPa South 1.9 km/h   89 % 0 mm
00:39 7.3 °C 5.6 °C 1022.2 hPa South 1.9 km/h 0.5 km/h 89 % 0 mm
00:44 7.1 °C 5.2 °C 1022.2 hPa South 3.7 km/h 1.3 km/h 88 % 0 mm
00:49 6.8 °C 4.9 °C 1022.2 hPa Calm     88 % 0 mm
00:54 6.7 °C 5 °C 1022.2 hPa Calm     89 % 0 mm
00:59 6.4 °C 4.8 °C 1021.9 hPa Calm     89 % 0 mm
01:04 6.2 °C 4.6 °C 1021.9 hPa Calm     89 % 0 mm
01:09 6.1 °C 4.4 °C 1021.9 hPa Calm     89 % 0 mm
01:14 5.9 °C 4.3 °C 1021.9 hPa Calm     89 % 0 mm
01:19 5.9 °C 4.4 °C 1021.9 hPa SSE 3.7 km/h 3.1 km/h 90 % 0 mm
01:24 5.8 °C 4.3 °C 1021.9 hPa South 3.7 km/h 1 km/h 90 % 0 mm
01:29 5.8 °C 4.3 °C 1021.9 hPa Calm     90 % 0 mm
01:34 5.7 °C 4.2 °C 1021.9 hPa Calm     90 % 0 mm
01:39 5.6 °C 4.1 °C 1021.9 hPa Calm     90 % 0 mm
01:44 5.4 °C 3.9 °C 1021.9 hPa Calm     90 % 0 mm
01:49 5.3 °C 4 °C 1021.9 hPa South 1.9 km/h   91 % 0 mm
01:54 5.3 °C 3.9 °C 1021.9 hPa Calm     91 % 0 mm
01:59 5.2 °C 3.8 °C 1021.9 hPa Calm     91 % 0 mm
02:04 5 °C 3.5 °C 1021.9 hPa Calm     90 % 0 mm
02:09 4.9 °C 3.6 °C 1021.9 hPa Calm     91 % 0 mm
02:14 5 °C 3.8 °C 1021.6 hPa Calm     92 % 0 mm
02:19 5.1 °C 3.7 °C 1021.6 hPa Calm     91 % 0 mm
02:24 4.9 °C 3.6 °C 1021.6 hPa Calm     91 % 0 mm
02:29 4.7 °C 3.4 °C 1021.6 hPa Calm     91 % 0 mm
02:34 4.6 °C 3.2 °C 1021.6 hPa Calm     91 % 0 mm
02:39 4.4 °C 3.1 °C 1021.2 hPa Calm     91 % 0 mm
02:44 4.3 °C 3 °C 1021.6 hPa Calm     91 % 0 mm
02:49 4.2 °C 2.8 °C 1021.2 hPa Calm     91 % 0 mm
02:54 4 °C 2.7 °C 1021.2 hPa Calm     91 % 0 mm
02:59 3.9 °C 2.8 °C 1021.2 hPa Calm     92 % 0 mm
03:04 3.9 °C 2.6 °C 1021.2 hPa Calm     91 % 0 mm
03:09 3.7 °C 2.4 °C 1021.2 hPa Calm     91 % 0 mm
03:14 3.7 °C 2.5 °C 1021.2 hPa Calm     92 % 0 mm
03:19 3.7 °C 2.5 °C 1021.2 hPa South 1.9 km/h   92 % 0 mm
03:24 3.6 °C 2.4 °C 1021.2 hPa Calm     92 % 0 mm
03:29 3.7 °C 2.5 °C 1021.2 hPa Calm     92 % 0 mm
03:34 3.6 °C 2.4 °C 1021.2 hPa Calm     92 % 0 mm
03:39 3.6 °C 2.4 °C 1021.2 hPa Calm     92 % 0 mm
03:44 3.7 °C 2.7 °C 1020.9 hPa South 1.9 km/h 0.5 km/h 93 % 0 mm
03:49 3.7 °C 2.6 °C 1020.9 hPa Calm     92 % 0 mm
03:54 3.6 °C 2.4 °C 1020.9 hPa Calm     92 % 0 mm
03:59 3.5 °C 2.3 °C 1020.9 hPa Calm     92 % 0 mm
04:04 3.4 °C 2.2 °C 1020.9 hPa Calm     92 % 0 mm
04:09 3.2 °C 2.1 °C 1020.9 hPa Calm     92 % 0 mm
04:14 3.1 °C 1.9 °C 1020.9 hPa Calm     92 % 0 mm
04:19 3 °C 1.8 °C 1020.9 hPa Calm     92 % 0 mm
04:24 2.9 °C 1.8 °C 1020.9 hPa Calm     92 % 0 mm
04:29 2.9 °C 1.9 °C 1020.9 hPa Calm     93 % 0 mm
04:34 2.8 °C 1.7 °C 1020.9 hPa Calm     92 % 0 mm
04:39 2.7 °C 1.6 °C 1020.9 hPa Calm     92 % 0 mm
04:44 2.6 °C 1.4 °C 1020.9 hPa Calm     92 % 0 mm
04:49 2.6 °C 1.6 °C 1021.2 hPa Calm     93 % 0 mm
04:54 2.6 °C 1.6 °C 1021.2 hPa Calm     93 % 0 mm
04:59 2.7 °C 1.7 °C 1020.9 hPa Calm     93 % 0 mm
05:04 2.8 °C 1.8 °C 1021.2 hPa Calm     93 % 0 mm
05:09 2.7 °C 1.7 °C 1021.2 hPa SSE 1.9 km/h   93 % 0 mm
05:14 2.7 °C 1.7 °C 1021.2 hPa Calm     93 % 0 mm
05:19 2.8 °C 1.9 °C 1021.2 hPa Calm     94 % 0 mm
05:24 2.9 °C 2.1 °C 1021.2 hPa Calm     94 % 0 mm
05:29 3.2 °C 2.3 °C 1021.2 hPa Calm     94 % 0 mm
05:34 3.2 °C 2.2 °C 1021.6 hPa Calm     93 % 0 mm
05:39 3.2 °C 2.2 °C 1021.6 hPa Calm     93 % 0 mm
05:44 3.3 °C 2.4 °C 1021.6 hPa Calm     94 % 0 mm
05:49 3.2 °C 2.2 °C 1021.6 hPa North 3.2 km/h 1.8 km/h 93 % 0 mm
05:54 3.2 °C 2.2 °C 1021.9 hPa Calm     93 % 0 mm
05:59 3.2 °C 2.3 °C 1021.9 hPa Calm     94 % 0 mm
06:04 3.1 °C 2.1 °C 1021.9 hPa Calm     93 % 0 mm
06:09 3.1 °C 2.1 °C 1021.9 hPa Calm     93 % 0 mm
06:14 3.2 °C 2.3 °C 1021.9 hPa Calm     94 % 0 mm
06:19 3.2 °C 2.3 °C 1021.9 hPa Calm     94 % 0 mm
06:24 3.3 °C 2.4 °C 1021.9 hPa Calm     94 % 0 mm
06:29 3.5 °C 2.6 °C 1021.6 hPa Calm     94 % 0 mm
06:34 3.9 °C 3.2 °C 1021.9 hPa Calm     95 % 0 mm
06:39 4.2 °C 3.5 °C 1021.9 hPa Calm     95 % 0 mm
06:44 4.6 °C 3.8 °C 1021.9 hPa Calm     95 % 0 mm
06:49 4.7 °C 3.8 °C 1022.2 hPa Calm     94 % 0 mm
06:54 4.9 °C 4.2 °C 1022.2 hPa North 3.2 km/h 0.6 km/h 95 % 0 mm
06:59 5.2 °C 4.4 °C 1022.2 hPa Calm     95 % 0 mm
07:04 5.4 °C 4.7 °C 1022.2 hPa Calm     95 % 0 mm
07:09 5.8 °C 5.1 °C 1022.6 hPa South 6.4 km/h 3.5 km/h 95 % 0 mm
07:14 7.3 °C 6.7 °C 1022.6 hPa SSE 11.1 km/h 8.9 km/h 96 % 0 mm
07:19 8.9 °C 8.4 °C 1022.6 hPa South 7.4 km/h 6.1 km/h 97 % 0 mm
07:24 9.8 °C 9.3 °C 1022.2 hPa South 9.7 km/h 7.6 km/h 97 % 0 mm
07:29 10.7 °C 9.7 °C 1022.6 hPa South 11.1 km/h 8 km/h 94 % 0 mm
07:34 11.4 °C 9.3 °C 1022.6 hPa SSE 14.8 km/h 8.4 km/h 87 % 0 mm
07:39 12.1 °C 9.3 °C 1022.6 hPa SSE 8 km/h 6.9 km/h 83 % 0 mm
07:44 12.4 °C 9.1 °C 1022.6 hPa SSE 7.4 km/h 5.8 km/h 80 % 0 mm
07:49 12.6 °C 8.6 °C 1022.6 hPa ENE 11.1 km/h 7.6 km/h 77 % 0 mm
07:54 12.7 °C 8.6 °C 1022.6 hPa ENE 11.1 km/h 7.2 km/h 76 % 0 mm
07:59 13 °C 8.4 °C 1022.6 hPa NE 16.7 km/h 10.3 km/h 74 % 0 mm
08:04 13.3 °C 8.6 °C 1022.6 hPa NE 13 km/h 9.7 km/h 73 % 0 mm
08:09 13.7 °C 8.8 °C 1022.6 hPa NE 16.7 km/h 10.1 km/h 72 % 0 mm
08:14 14.1 °C 9.1 °C 1022.6 hPa NE 8 km/h 6.4 km/h 72 % 0 mm
08:19 14.3 °C 8.7 °C 1022.6 hPa NE 14.8 km/h 8.4 km/h 69 % 0 mm
08:24 14.5 °C 9.1 °C 1022.6 hPa NE 7.4 km/h 4.8 km/h 70 % 0 mm
08:29 14.9 °C 9.2 °C 1022.6 hPa NE 9.3 km/h 5.6 km/h 69 % 0 mm
08:34 15.2 °C 9.3 °C 1022.6 hPa NE 11.1 km/h 6.8 km/h 68 % 0 mm
08:39 15.3 °C 8.9 °C 1022.6 hPa NNE 14.8 km/h 7.4 km/h 66 % 0 mm
08:44 15.4 °C 9.1 °C 1022.6 hPa NNE 12.9 km/h 11.1 km/h 66 % 0 mm
08:49 15.6 °C 9.2 °C 1022.6 hPa NNE 14.8 km/h 6.3 km/h 66 % 0 mm
08:54 15.9 °C 9.3 °C 1022.6 hPa NNE 11.1 km/h 9.3 km/h 65 % 0 mm
08:59 16.2 °C 9.6 °C 1022.6 hPa NNE 11.1 km/h 6 km/h 65 % 0 mm
09:04 16.5 °C 9.4 °C 1022.6 hPa NNE 9.3 km/h 8 km/h 63 % 0 mm
09:09 16.6 °C 9.3 °C 1022.6 hPa NNE 13 km/h 10.6 km/h 62 % 0 mm
09:14 16.7 °C 9.1 °C 1022.6 hPa NNE 13 km/h 10.5 km/h 61 % 0 mm
09:19 17.1 °C 9.3 °C 1022.6 hPa NNE 11.3 km/h 6.8 km/h 60 % 0 mm
09:24 17.3 °C 9.2 °C 1022.6 hPa NNE 14.8 km/h 9.5 km/h 59 % 0 mm
09:29 17.5 °C 9.4 °C 1022.6 hPa NNE 11.1 km/h 8 km/h 59 % 0 mm
09:34 17.6 °C 8.9 °C 1022.6 hPa NNE 14.8 km/h 10.5 km/h 57 % 0 mm
09:39 17.5 °C 8.6 °C 1022.6 hPa NNE 20.4 km/h 15.6 km/h 56 % 0 mm
09:44 17.6 °C 9.2 °C 1022.6 hPa NNE 13 km/h 8 km/h 58 % 0 mm
09:49 17.8 °C 9.2 °C 1022.2 hPa NNE 11.1 km/h 8.2 km/h 57 % 0 mm
09:54 18.1 °C 9.1 °C 1022.2 hPa NNE 11.1 km/h 7.1 km/h 56 % 0 mm
09:59 18.1 °C 8.9 °C 1022.6 hPa North 13 km/h 8.5 km/h 55 % 0 mm
10:04 18.1 °C 9.4 °C 1022.2 hPa North 11.3 km/h 9.2 km/h 57 % 0 mm
10:09 17.9 °C 9.3 °C 1022.2 hPa North 12.9 km/h 8.5 km/h 57 % 0 mm
10:14 18.2 °C 9.3 °C 1022.2 hPa North 16.1 km/h 13.5 km/h 56 % 0 mm
10:19 18.3 °C 9.4 °C 1022.2 hPa North 16.7 km/h 9.2 km/h 56 % 0 mm
10:24 18.5 °C 9 °C 1022.2 hPa North 16.7 km/h 10.6 km/h 54 % 0 mm
10:25 18.4 °C 8.9 °C 1022.2 hPa North 16.7 km/h 8.2 km/h 54 % 0 mm
10:39 18.7 °C 9.5 °C 1021.9 hPa North 16.7 km/h 8.5 km/h 55 % 0 mm
10:44 18.9 °C 9.4 °C 1021.9 hPa North 14.5 km/h 13 km/h 54 % 0 mm
10:49 19.2 °C 9.7 °C 1021.9 hPa North 11.1 km/h 8.5 km/h 54 % 0 mm
10:54 19.4 °C 9.9 °C 1021.9 hPa North 13 km/h 10.8 km/h 54 % 0 mm
10:59 19.6 °C 9.5 °C 1021.6 hPa NNE 20.4 km/h 14.5 km/h 52 % 0 mm
11:04 19.7 °C 9.8 °C 1021.6 hPa North 14.8 km/h 8.5 km/h 53 % 0 mm
11:09 19.9 °C 9.8 °C 1021.6 hPa North 16.1 km/h 12.2 km/h 52 % 0 mm
11:14 20.1 °C 9.9 °C 1021.6 hPa North 9.3 km/h 5.3 km/h 52 % 0 mm
11:19 20.2 °C 9.4 °C 1021.2 hPa North 13 km/h 10.8 km/h 50 % 0 mm
11:24 20.2 °C 9.1 °C 1021.2 hPa North 13 km/h 8.5 km/h 49 % 0 mm
11:29 20.3 °C 9.2 °C 1021.2 hPa North 7.4 km/h 8.7 km/h 49 % 0 mm
11:34 20.4 °C 9.4 °C 1021.2 hPa North 20.4 km/h 14.5 km/h 49 % 0 mm
11:39 20.6 °C 9.2 °C 1021.2 hPa NNE 16.7 km/h 9.2 km/h 48 % 0 mm
11:44 20.4 °C 9 °C 1021.2 hPa NNW 18.5 km/h 11.3 km/h 48 % 0 mm
11:49 20.5 °C 8.8 °C 1021.2 hPa NNW 11.1 km/h 6.8 km/h 47 % 0 mm
11:54 20.4 °C 8.4 °C 1020.9 hPa NNW 18.5 km/h 10.5 km/h 46 % 0 mm
11:59 20.7 °C 8.9 °C 1020.9 hPa North 9.3 km/h 6.6 km/h 47 % 0 mm
12:04 20.9 °C 9.5 °C 1020.9 hPa NW 16.7 km/h 9.3 km/h 48 % 0 mm
12:09 21.3 °C 9.2 °C 1020.9 hPa NNW 18.5 km/h 12.4 km/h 46 % 0 mm
12:14 21.2 °C 9.1 °C 1020.9 hPa North 14.8 km/h 12.6 km/h 46 % 0 mm
12:19 21.3 °C 8.9 °C 1020.5 hPa North 14.8 km/h 7.1 km/h 45 % 0 mm
12:24 21.6 °C 9.5 °C 1020.5 hPa North 16.1 km/h 4.7 km/h 46 % 0 mm
12:29 21.6 °C 8.5 °C 1020.5 hPa NNE 24.1 km/h 11.7 km/h 43 % 0 mm
12:34 21.6 °C 8.2 °C 1020.5 hPa NNE 11.1 km/h 10 km/h 42 % 0 mm
12:39 21.7 °C 8.9 °C 1020.5 hPa North 5.6 km/h 2.4 km/h 44 % 0 mm
12:44 22.2 °C 8.3 °C 1020.5 hPa North 20.4 km/h 13.8 km/h 41 % 0 mm
12:49 22.1 °C 8.6 °C 1020.5 hPa North 13 km/h 13 km/h 42 % 0 mm
12:54 21.5 °C 7.7 °C 1020.5 hPa North 9.3 km/h 5.6 km/h 41 % 0 mm
12:59 21.4 °C 7.9 °C 1020.5 hPa NNW 14.5 km/h 10.1 km/h 42 % 0 mm
13:04 21.4 °C 7.6 °C 1020.5 hPa North 14.8 km/h 10.9 km/h 41 % 0 mm
13:09 21.2 °C 7.8 °C 1020.2 hPa North 14.8 km/h 9.7 km/h 42 % 0 mm
13:14 21.6 °C 8.5 °C 1020.2 hPa North 13 km/h 9.7 km/h 43 % 0 mm
13:19 22.1 °C 9.2 °C 1020.2 hPa North 13 km/h 6.1 km/h 44 % 0 mm
13:24 22.2 °C 8.3 °C 1020.2 hPa NNW 17.7 km/h 11.7 km/h 41 % 0 mm
13:29 22.1 °C 8.6 °C 1020.2 hPa North 11.1 km/h 6.3 km/h 42 % 0 mm
13:34 22.4 °C 8.2 °C 1020.2 hPa North 16.7 km/h 8.9 km/h 40 % 0 mm
13:39 22.4 °C 8.2 °C 1020.2 hPa NNW 18.5 km/h 13 km/h 40 % 0 mm
13:44 22 °C 7.8 °C 1020.2 hPa North 9.3 km/h 4.8 km/h 40 % 0 mm
13:49 21.6 °C 7.7 °C 1020.2 hPa NNW 5.6 km/h 4.5 km/h 41 % 0 mm
13:54 21.4 °C 7.6 °C 1020.2 hPa North 18.5 km/h 11.9 km/h 41 % 0 mm
13:59 21.6 °C 7.7 °C 1019.9 hPa NW 12.9 km/h 10.5 km/h 41 % 0 mm
14:04 21.8 °C 7.9 °C 1019.9 hPa NW 11.1 km/h 7.9 km/h 41 % 0 mm
14:09 21.8 °C 7.6 °C 1019.9 hPa NW 8 km/h 5.1 km/h 40 % 0 mm
14:14 21.8 °C 7.3 °C 1019.9 hPa NW 13 km/h 10.5 km/h 39 % 0 mm
14:19 21.4 °C 6.8 °C 1019.9 hPa NW 7.4 km/h 6.6 km/h 39 % 0 mm
14:24 21.5 °C 7.7 °C 1019.9 hPa NW 13 km/h 8.5 km/h 41 % 0 mm
14:29 21.4 °C 7.6 °C 1019.5 hPa NNW 9.7 km/h 9.2 km/h 41 % 0 mm
14:34 22 °C 7.8 °C 1019.5 hPa North 14.8 km/h 12.1 km/h 40 % 0 mm
14:39 22.1 °C 7.4 °C 1019.5 hPa NW 9.3 km/h 7.9 km/h 39 % 0 mm
14:44 21.7 °C 7.5 °C 1019.5 hPa NW 11.1 km/h 6 km/h 40 % 0 mm
14:49 21.3 °C 7.9 °C 1019.5 hPa NW 13 km/h 5.8 km/h 42 % 0 mm
14:54 21.3 °C 7.5 °C 1019.5 hPa NW 9.3 km/h 5.5 km/h 41 % 0 mm
14:59 21.5 °C 6.9 °C 1019.5 hPa NNW 14.8 km/h 9.3 km/h 39 % 0 mm
15:04 21.7 °C 6.7 °C 1019.2 hPa North 11.1 km/h 5.8 km/h 38 % 0 mm
15:09 21.9 °C 6.9 °C 1019.2 hPa NNW 5.6 km/h 3.5 km/h 38 % 0 mm
15:14 22.4 °C 7.7 °C 1019.2 hPa NNW 18.5 km/h 10.9 km/h 39 % 0 mm
15:19 22.3 °C 7.3 °C 1019.2 hPa NNW 12.9 km/h 8.9 km/h 38 % 0 mm
15:24 22.4 °C 7.4 °C 1019.2 hPa NNW 8 km/h 6.6 km/h 38 % 0 mm
15:29 22.6 °C 6.7 °C 1018.8 hPa NNW 5.6 km/h 2.1 km/h 36 % 0 mm
15:34 22.4 °C 7 °C 1018.8 hPa NW 13 km/h 8.4 km/h 37 % 0 mm
15:39 21.9 °C 6.9 °C 1018.8 hPa NW 5.6 km/h 5.1 km/h 38 % 0 mm
15:44 22 °C 7.4 °C 1018.8 hPa NW 13 km/h 7.9 km/h 39 % 0 mm
15:49 21.8 °C 7.2 °C 1018.8 hPa North 22.2 km/h 10.5 km/h 39 % 0 mm
15:54 21.7 °C 7.5 °C 1018.8 hPa NW 5.6 km/h 4 km/h 40 % 0 mm
15:59 21.7 °C 7.2 °C 1018.8 hPa NW 5.6 km/h 0.8 km/h 39 % 0 mm
16:04 21.9 °C 6.9 °C 1018.8 hPa North 5.6 km/h 4 km/h 38 % 0 mm
16:09 22.2 °C 7.2 °C 1018.8 hPa North 9.3 km/h 9 km/h 38 % 0 mm
16:14 22.3 °C 6.9 °C 1018.8 hPa ENE 18.5 km/h 8 km/h 37 % 0 mm
16:19 22.6 °C 7.6 °C 1018.8 hPa ENE 11.1 km/h 4.3 km/h 38 % 0 mm
16:24 22.7 °C 6.9 °C 1018.8 hPa NE 13 km/h 9.5 km/h 36 % 0 mm
16:29 22.7 °C 6.9 °C 1018.8 hPa NNE 11.1 km/h 8.2 km/h 36 % 0 mm
16:34 22.7 °C 6.8 °C 1018.8 hPa NNE 11.1 km/h 7.4 km/h 36 % 0 mm
16:39 22.8 °C 7.3 °C 1018.8 hPa NNE 1.9 km/h 0.2 km/h 37 % 0 mm
16:44 23.1 °C 7.2 °C 1018.8 hPa NNE 11.1 km/h 3.7 km/h 36 % 0 mm
16:49 22.9 °C 7.1 °C 1018.8 hPa NNE 9.3 km/h 5.6 km/h 36 % 0 mm
16:54 22.6 °C 6.8 °C 1018.8 hPa NNE 5.6 km/h 3.4 km/h 36 % 0 mm
16:59 22.6 °C 6.8 °C 1018.8 hPa NNE 5.6 km/h 1.4 km/h 36 % 0 mm
17:04 22.6 °C 7.1 °C 1018.8 hPa NNE 3.7 km/h 2.6 km/h 37 % 0 mm
17:09 22.5 °C 6.7 °C 1018.8 hPa NNE 1.9 km/h 0.3 km/h 36 % 0 mm
17:14 22.7 °C 6.8 °C 1018.8 hPa NNE 5.6 km/h 1.4 km/h 36 % 0 mm
17:19 22.7 °C 6.9 °C 1018.8 hPa NNE 5.6 km/h 3.5 km/h 36 % 0 mm
17:24 22.5 °C 7.1 °C 1018.8 hPa NNE 3.7 km/h 2.7 km/h 37 % 0 mm
17:29 22.4 °C 7.4 °C 1018.8 hPa NNE 3.7 km/h 3.5 km/h 38 % 0 mm
17:34 22.1 °C 7.1 °C 1018.8 hPa NNE 5.6 km/h 1.8 km/h 38 % 0 mm
17:39 21.9 °C 6.9 °C 1019.2 hPa NNE 5.6 km/h 3.4 km/h 38 % 0 mm
17:44 21.7 °C 7.2 °C 1019.2 hPa NNE 3.7 km/h 1.3 km/h 39 % 0 mm
17:49 21.4 °C 6.9 °C 1019.2 hPa NNE 1.9 km/h 3.4 km/h 39 % 0 mm
17:54 21.2 °C 7.1 °C 1019.2 hPa NNE 5.6 km/h 2.4 km/h 40 % 0 mm
17:59 21.1 °C 6.9 °C 1019.2 hPa Calm     40 % 0 mm
18:04 20.8 °C 7.4 °C 1019.2 hPa Calm     42 % 0 mm
18:09 20.6 °C 7.6 °C 1019.2 hPa NNE 3.7 km/h 2.9 km/h 43 % 0 mm
18:14 20.3 °C 7.6 °C 1019.2 hPa Calm   0.2 km/h 44 % 0 mm
18:19 20.1 °C 8.1 °C 1019.5 hPa Calm     46 % 0 mm
18:24 19.9 °C 7.9 °C 1019.5 hPa Calm     46 % 0 mm
18:29 19.7 °C 7.7 °C 1019.5 hPa Calm     46 % 0 mm
18:34 19.4 °C 8.1 °C 1019.5 hPa Calm     48 % 0 mm
18:39 19.1 °C 8.2 °C 1019.5 hPa Calm     49 % 0 mm
18:44 18.7 °C 8.1 °C 1019.5 hPa Calm     50 % 0 mm
18:49 18.2 °C 8.2 °C 1019.5 hPa Calm     52 % 0 mm
18:54 17.8 °C 8.1 °C 1019.5 hPa Calm     53 % 0 mm
18:59 17.2 °C 8.1 °C 1019.5 hPa Calm     55 % 0 mm
19:04 16.8 °C 8.2 °C 1019.5 hPa Calm     57 % 0 mm
19:09 16.4 °C 8.2 °C 1019.5 hPa Calm     58 % 0 mm
19:14 16.3 °C 8.1 °C 1019.5 hPa Calm     58 % 0 mm
19:19 15.9 °C 7.9 °C 1019.5 hPa Calm     59 % 0 mm
19:24 15.8 °C 8.3 °C 1019.9 hPa Calm     61 % 0 mm
19:29 15.7 °C 8.2 °C 1019.9 hPa Calm     61 % 0 mm
19:34 15.7 °C 8.2 °C 1019.9 hPa Calm     61 % 0 mm
19:39 15.4 °C 8.2 °C 1019.9 hPa Calm     62 % 0 mm
19:44 15.2 °C 8.2 °C 1019.9 hPa Calm     63 % 0 mm
19:49 15 °C 8.2 °C 1019.9 hPa Calm     64 % 0 mm
19:54 14.8 °C 8.1 °C 1019.9 hPa Calm     64 % 0 mm
19:59 14.6 °C 8.1 °C 1019.9 hPa Calm     65 % 0 mm
20:04 14.5 °C 8 °C 1019.9 hPa Calm     65 % 0 mm
20:09 14.3 °C 8 °C 1020.2 hPa Calm     66 % 0 mm
20:14 14.1 °C 7.8 °C 1020.2 hPa Calm     66 % 0 mm
20:19 13.9 °C 7.8 °C 1020.2 hPa Calm     67 % 0 mm
20:24 13.6 °C 7.8 °C 1020.2 hPa Calm     68 % 0 mm
20:29 13.4 °C 7.8 °C 1020.2 hPa Calm     69 % 0 mm
20:34 13.3 °C 8 °C 1020.2 hPa NNE 3.2 km/h 1.1 km/h 70 % 0 mm
20:39 13.3 °C 7.9 °C 1020.2 hPa NNE 3.2 km/h 2.1 km/h 70 % 0 mm
20:44 13.2 °C 7.9 °C 1020.2 hPa Calm   0.2 km/h 70 % 0 mm
20:49 13.2 °C 8 °C 1020.2 hPa NNE 1.9 km/h 0.3 km/h 71 % 0 mm
20:54 13.1 °C 7.9 °C 1020.2 hPa Calm   0.6 km/h 71 % 0 mm
20:59 13.1 °C 7.9 °C 1020.2 hPa Calm     71 % 0 mm
21:04 12.9 °C 7.8 °C 1020.2 hPa Calm     71 % 0 mm
21:09 12.8 °C 7.9 °C 1020.2 hPa NNE 1.9 km/h 2.1 km/h 72 % 0 mm
21:14 12.8 °C 7.8 °C 1020.5 hPa NNE 3.7 km/h 2.3 km/h 72 % 0 mm
21:19 12.7 °C 7.7 °C 1020.5 hPa NNE 1.9 km/h 0.8 km/h 72 % 0 mm
21:24 12.5 °C 7.6 °C 1020.5 hPa Calm     72 % 0 mm
21:29 12.4 °C 7.6 °C 1020.5 hPa Calm     72 % 0 mm
21:34 12.3 °C 7.6 °C 1020.5 hPa NNE 3.7 km/h 2.1 km/h 73 % 0 mm
21:39 12.4 °C 7.7 °C 1020.5 hPa NNE 3.7 km/h 2.4 km/h 73 % 0 mm
21:44 12.4 °C 7.7 °C 1020.5 hPa NNE 3.7 km/h 1.8 km/h 73 % 0 mm
21:49 12.6 °C 7.7 °C 1020.5 hPa NNE 1.9 km/h   72 % 0 mm
21:54 12.6 °C 7.5 °C 1020.5 hPa Calm     71 % 0 mm
21:59 12.7 °C 7.6 °C 1020.5 hPa Calm     71 % 0 mm
22:04 13.2 °C 7.6 °C 1020.5 hPa Calm     69 % 0 mm
22:09 13.4 °C 7.7 °C 1020.5 hPa Calm     68 % 0 mm
22:14 13.7 °C 7.5 °C 1020.5 hPa Calm     66 % 0 mm
22:19 13.9 °C 7.4 °C 1020.5 hPa NNE 4.8 km/h 1.6 km/h 65 % 0 mm
22:24 14.1 °C 7.2 °C 1020.5 hPa NNE 3.7 km/h 2.3 km/h 63 % 0 mm
22:29 14.3 °C 7.3 °C 1020.5 hPa NNE 3.7 km/h 3.2 km/h 63 % 0 mm
22:34 14.4 °C 7.2 °C 1020.5 hPa NNE 3.7 km/h 2.6 km/h 62 % 0 mm
22:39 14.5 °C 7.3 °C 1020.5 hPa NNE 3.7 km/h 2.3 km/h 62 % 0 mm
22:44 14.4 °C 7.2 °C 1020.5 hPa NNE 5.6 km/h 3.7 km/h 62 % 0 mm
22:49 14.4 °C 7.2 °C 1020.5 hPa NNE 5.6 km/h 0.6 km/h 62 % 0 mm
22:54 14.2 °C 7.1 °C 1020.5 hPa NNE 1.9 km/h 1.6 km/h 62 % 0 mm
22:59 14.2 °C 7.2 °C 1020.5 hPa NNE 5.6 km/h 2.3 km/h 63 % 0 mm
23:04 14.1 °C 7.2 °C 1020.5 hPa NNE 4.8 km/h 3.2 km/h 63 % 0 mm
23:09 14.1 °C 6.9 °C 1020.5 hPa NNE 5.6 km/h 2.6 km/h 62 % 0 mm
23:14 14.1 °C 6.9 °C 1020.2 hPa NNE 5.6 km/h 3.5 km/h 62 % 0 mm
23:19 14.2 °C 7 °C 1020.5 hPa NNE 5.6 km/h 3.2 km/h 62 % 0 mm
23:24 14.2 °C 7 °C 1020.5 hPa NNE 5.6 km/h 3.5 km/h 62 % 0 mm
23:29 14.2 °C 7 °C 1020.5 hPa NNE 5.6 km/h 2.9 km/h 62 % 0 mm
23:34 14.2 °C 7 °C 1020.5 hPa NNE 5.6 km/h 2.4 km/h 62 % 0 mm
23:39 14.1 °C 6.9 °C 1020.5 hPa NNE 5.6 km/h 4 km/h 62 % 0 mm
23:44 14.2 °C 6.7 °C 1020.5 hPa NNE 5.6 km/h 3.2 km/h 61 % 0 mm
23:49 14.2 °C 6.8 °C 1020.5 hPa NNE 4.8 km/h 2.9 km/h 61 % 0 mm
23:54 14.3 °C 6.9 °C 1020.5 hPa NNE 5.6 km/h 3.5 km/h 61 % 0 mm
23:59 14.5 °C 6.8 °C 1020.5 hPa NNE 5.6 km/h 2.9 km/h 60 % 0 mm
Ararat Weather
Compliments of Weather Underground - 2.25 mb
Click here to send mail.


ABOUT

Live weather data from Ararat, Victoria, Australia, 3377
Data uploaded from Cumulus every 5 minutes to Weather Underground.
This site then downloads the raw data for formatting and display.
Metric and imperial data can be displayed. Graphs and historical data available.
Includes Sun and Moon times and rain image live from BOM.

Check out Ararat Weather on Facebook, Twitter and Google +

Help support ongoing costs by checking out the ads





Follow @AraratWeather